San Antonio, Texas
Traffic Map
Current Weather Conditions
San Antonio, Texas
Clear
Clear
34°
Feels Like: 36°
Wind Chill: 34° Ceiling: Unl
Heat Index: 36° Visibility: 10mi
Dew Point: 20° Wind: 2mph
Humidity: 45% Direction: 50° (NE)
Pressure: 29.88in Gusts: 0mph
Raw Report DataKSKF 010058Z AUTO 05002KT 10SM CLR 34/20 A2988 RMK AO2 SLP110 T03390203 $
Traffic Incident Summary
Active as of:
Severity:
Category:
InformationThere was an issue retrieving the traffic information for this location. Please try a different location or try again shortly.
Advertisements
Track Severe Weather on mobile